sensor_id;sensor_type;location;lat;lon;timestamp;P1;durP1;ratioP1;P2;durP2;ratioP2
24715;SDS011;12822;50.124;8.678;2023-04-23T00:02:15;8.93;;;5.20;;
24715;SDS011;12822;50.124;8.678;2023-04-23T00:04:45;10.02;;;5.45;;
24715;SDS011;12822;50.124;8.678;2023-04-23T00:07:14;7.43;;;5.60;;
24715;SDS011;12822;50.124;8.678;2023-04-23T00:09:40;9.20;;;5.75;;
24715;SDS011;12822;50.124;8.678;2023-04-23T00:12:08;9.13;;;5.75;;
24715;SDS011;12822;50.124;8.678;2023-04-23T00:14:34;9.05;;;5.30;;
24715;SDS011;12822;50.124;8.678;2023-04-23T00:17:00;9.73;;;5.40;;
24715;SDS011;12822;50.124;8.678;2023-04-23T00:19:26;12.45;;;5.85;;
24715;SDS011;12822;50.124;8.678;2023-04-23T00:21:52;9.15;;;5.90;;
24715;SDS011;12822;50.124;8.678;2023-04-23T00:24:18;8.80;;;5.55;;
24715;SDS011;12822;50.124;8.678;2023-04-23T00:26:44;9.88;;;6.18;;
24715;SDS011;12822;50.124;8.678;2023-04-23T00:29:11;8.73;;;5.78;;
24715;SDS011;12822;50.124;8.678;2023-04-23T00:31:37;11.07;;;5.72;;
24715;SDS011;12822;50.124;8.678;2023-04-23T00:34:03;10.27;;;5.93;;
24715;SDS011;12822;50.124;8.678;2023-04-23T00:36:29;12.20;;;6.30;;
24715;SDS011;12822;50.124;8.678;2023-04-23T00:38:55;6.75;;;5.55;;
24715;SDS011;12822;50.124;8.678;2023-04-23T00:41:21;8.40;;;5.63;;
24715;SDS011;12822;50.124;8.678;2023-04-23T00:43:48;12.38;;;6.30;;
24715;SDS011;12822;50.124;8.678;2023-04-23T00:46:17;10.07;;;6.25;;
24715;SDS011;12822;50.124;8.678;2023-04-23T00:48:43;14.70;;;6.00;;
24715;SDS011;12822;50.124;8.678;2023-04-23T00:51:10;11.50;;;6.38;;
24715;SDS011;12822;50.124;8.678;2023-04-23T00:53:36;10.73;;;5.90;;
24715;SDS011;12822;50.124;8.678;2023-04-23T00:56:03;10.75;;;6.13;;
24715;SDS011;12822;50.124;8.678;2023-04-23T00:58:30;13.57;;;6.68;;
24715;SDS011;12822;50.124;8.678;2023-04-23T01:00:56;10.23;;;6.28;;
24715;SDS011;12822;50.124;8.678;2023-04-23T01:03:22;10.40;;;6.45;;
24715;SDS011;12822;50.124;8.678;2023-04-23T01:05:49;14.57;;;6.28;;
24715;SDS011;12822;50.124;8.678;2023-04-23T01:08:15;13.55;;;7.55;;
24715;SDS011;12822;50.124;8.678;2023-04-23T01:10:43;10.13;;;7.05;;
24715;SDS011;12822;50.124;8.678;2023-04-23T01:13:10;11.38;;;7.22;;
24715;SDS011;12822;50.124;8.678;2023-04-23T01:15:36;12.93;;;7.88;;
24715;SDS011;12822;50.124;8.678;2023-04-23T01:18:02;10.00;;;7.53;;
24715;SDS011;12822;50.124;8.678;2023-04-23T01:20:31;10.45;;;7.28;;
24715;SDS011;12822;50.124;8.678;2023-04-23T01:22:57;9.27;;;7.22;;
24715;SDS011;12822;50.124;8.678;2023-04-23T01:25:23;9.77;;;7.38;;
24715;SDS011;12822;50.124;8.678;2023-04-23T01:27:49;11.52;;;7.75;;
24715;SDS011;12822;50.124;8.678;2023-04-23T01:30:15;14.15;;;8.27;;
24715;SDS011;12822;50.124;8.678;2023-04-23T01:32:41;14.65;;;8.80;;
24715;SDS011;12822;50.124;8.678;2023-04-23T01:35:08;10.43;;;8.20;;
24715;SDS011;12822;50.124;8.678;2023-04-23T01:37:34;11.35;;;8.68;;
24715;SDS011;12822;50.124;8.678;2023-04-23T01:40:02;13.75;;;9.60;;
24715;SDS011;12822;50.124;8.678;2023-04-23T01:42:28;11.93;;;8.93;;
24715;SDS011;12822;50.124;8.678;2023-04-23T01:44:54;11.88;;;7.95;;
24715;SDS011;12822;50.124;8.678;2023-04-23T01:47:20;13.15;;;8.95;;
24715;SDS011;12822;50.124;8.678;2023-04-23T01:49:46;16.27;;;9.30;;
24715;SDS011;12822;50.124;8.678;2023-04-23T01:52:12;12.75;;;9.35;;
24715;SDS011;12822;50.124;8.678;2023-04-23T01:54:38;15.80;;;9.45;;
24715;SDS011;12822;50.124;8.678;2023-04-23T01:57:04;13.98;;;8.52;;
24715;SDS011;12822;50.124;8.678;2023-04-23T01:59:30;16.92;;;9.95;;
24715;SDS011;12822;50.124;8.678;2023-04-23T02:01:57;12.65;;;9.38;;
24715;SDS011;12822;50.124;8.678;2023-04-23T02:04:23;13.20;;;9.80;;
24715;SDS011;12822;50.124;8.678;2023-04-23T02:06:49;13.88;;;9.63;;
24715;SDS011;12822;50.124;8.678;2023-04-23T02:09:15;11.88;;;9.07;;
24715;SDS011;12822;50.124;8.678;2023-04-23T02:11:41;14.00;;;10.05;;
24715;SDS011;12822;50.124;8.678;2023-04-23T02:14:08;11.98;;;9.43;;
24715;SDS011;12822;50.124;8.678;2023-04-23T02:16:34;14.05;;;9.75;;
24715;SDS011;12822;50.124;8.678;2023-04-23T02:19:00;12.40;;;9.55;;
24715;SDS011;12822;50.124;8.678;2023-04-23T02:21:26;14.27;;;9.82;;
24715;SDS011;12822;50.124;8.678;2023-04-23T02:23:53;14.07;;;10.70;;
24715;SDS011;12822;50.124;8.678;2023-04-23T02:26:20;14.77;;;10.52;;
24715;SDS011;12822;50.124;8.678;2023-04-23T02:28:46;15.23;;;10.30;;
24715;SDS011;12822;50.124;8.678;2023-04-23T02:31:13;15.45;;;10.63;;
24715;SDS011;12822;50.124;8.678;2023-04-23T02:33:40;13.85;;;9.95;;
24715;SDS011;12822;50.124;8.678;2023-04-23T02:36:06;14.20;;;10.88;;
24715;SDS011;12822;50.124;8.678;2023-04-23T02:38:34;16.40;;;11.25;;
24715;SDS011;12822;50.124;8.678;2023-04-23T02:41:00;14.07;;;11.35;;
24715;SDS011;12822;50.124;8.678;2023-04-23T02:43:29;13.98;;;10.45;;
24715;SDS011;12822;50.124;8.678;2023-04-23T02:45:55;14.05;;;10.90;;
24715;SDS011;12822;50.124;8.678;2023-04-23T02:48:21;15.00;;;10.80;;
24715;SDS011;12822;50.124;8.678;2023-04-23T02:50:50;15.63;;;10.88;;
24715;SDS011;12822;50.124;8.678;2023-04-23T02:53:15;18.85;;;11.23;;
24715;SDS011;12822;50.124;8.678;2023-04-23T02:55:41;14.60;;;10.82;;
24715;SDS011;12822;50.124;8.678;2023-04-23T02:58:07;13.95;;;11.25;;
24715;SDS011;12822;50.124;8.678;2023-04-23T03:00:34;18.23;;;11.02;;
24715;SDS011;12822;50.124;8.678;2023-04-23T03:03:00;19.95;;;10.20;;
24715;SDS011;12822;50.124;8.678;2023-04-23T03:05:26;14.48;;;10.90;;
24715;SDS011;12822;50.124;8.678;2023-04-23T03:07:52;14.63;;;10.75;;
24715;SDS011;12822;50.124;8.678;2023-04-23T03:10:18;11.93;;;9.38;;
24715;SDS011;12822;50.124;8.678;2023-04-23T03:12:44;14.02;;;9.23;;
24715;SDS011;12822;50.124;8.678;2023-04-23T03:15:10;12.48;;;8.68;;
24715;SDS011;12822;50.124;8.678;2023-04-23T03:17:36;12.15;;;8.93;;
24715;SDS011;12822;50.124;8.678;2023-04-23T03:20:02;13.27;;;9.00;;
24715;SDS011;12822;50.124;8.678;2023-04-23T03:22:28;11.63;;;8.68;;
24715;SDS011;12822;50.124;8.678;2023-04-23T03:24:54;14.77;;;9.48;;
24715;SDS011;12822;50.124;8.678;2023-04-23T03:27:20;13.90;;;9.13;;
24715;SDS011;12822;50.124;8.678;2023-04-23T03:29:46;11.13;;;9.02;;
24715;SDS011;12822;50.124;8.678;2023-04-23T03:32:12;12.82;;;9.38;;
24715;SDS011;12822;50.124;8.678;2023-04-23T03:34:38;12.30;;;9.30;;
24715;SDS011;12822;50.124;8.678;2023-04-23T03:37:04;13.82;;;9.50;;
24715;SDS011;12822;50.124;8.678;2023-04-23T03:39:30;13.93;;;9.77;;
24715;SDS011;12822;50.124;8.678;2023-04-23T03:41:56;13.23;;;9.02;;
24715;SDS011;12822;50.124;8.678;2023-04-23T03:44:22;12.25;;;9.25;;
24715;SDS011;12822;50.124;8.678;2023-04-23T03:46:48;12.70;;;8.77;;
24715;SDS011;12822;50.124;8.678;2023-04-23T03:49:16;12.55;;;9.05;;
24715;SDS011;12822;50.124;8.678;2023-04-23T03:51:42;13.00;;;9.40;;
24715;SDS011;12822;50.124;8.678;2023-04-23T03:54:08;13.98;;;9.25;;
24715;SDS011;12822;50.124;8.678;2023-04-23T03:56:34;12.00;;;9.50;;
24715;SDS011;12822;50.124;8.678;2023-04-23T03:59:01;12.18;;;9.35;;
24715;SDS011;12822;50.124;8.678;2023-04-23T04:01:27;13.00;;;9.38;;
24715;SDS011;12822;50.124;8.678;2023-04-23T04:03:52;12.68;;;9.43;;
24715;SDS011;12822;50.124;8.678;2023-04-23T04:06:19;11.50;;;8.60;;
24715;SDS011;12822;50.124;8.678;2023-04-23T04:08:45;11.73;;;9.60;;
24715;SDS011;12822;50.124;8.678;2023-04-23T04:11:11;11.63;;;9.90;;
24715;SDS011;12822;50.124;8.678;2023-04-23T04:13:37;9.95;;;8.85;;
24715;SDS011;12822;50.124;8.678;2023-04-23T04:16:03;12.10;;;8.80;;
24715;SDS011;12822;50.124;8.678;2023-04-23T04:18:29;11.68;;;8.95;;
24715;SDS011;12822;50.124;8.678;2023-04-23T04:20:55;10.63;;;8.70;;
24715;SDS011;12822;50.124;8.678;2023-04-23T04:23:21;11.45;;;8.63;;
24715;SDS011;12822;50.124;8.678;2023-04-23T04:25:47;13.32;;;8.48;;
24715;SDS011;12822;50.124;8.678;2023-04-23T04:28:14;12.63;;;8.82;;
24715;SDS011;12822;50.124;8.678;2023-04-23T04:30:40;10.35;;;7.90;;
24715;SDS011;12822;50.124;8.678;2023-04-23T04:33:06;12.73;;;8.30;;
24715;SDS011;12822;50.124;8.678;2023-04-23T04:35:33;11.98;;;9.00;;
24715;SDS011;12822;50.124;8.678;2023-04-23T04:37:59;11.18;;;8.57;;
24715;SDS011;12822;50.124;8.678;2023-04-23T04:40:25;12.85;;;8.25;;
24715;SDS011;12822;50.124;8.678;2023-04-23T04:42:52;11.32;;;8.75;;
24715;SDS011;12822;50.124;8.678;2023-04-23T04:45:19;11.15;;;8.85;;
24715;SDS011;12822;50.124;8.678;2023-04-23T04:47:45;12.05;;;8.18;;
24715;SDS011;12822;50.124;8.678;2023-04-23T04:50:11;9.57;;;8.18;;
24715;SDS011;12822;50.124;8.678;2023-04-23T04:52:37;8.63;;;7.25;;
24715;SDS011;12822;50.124;8.678;2023-04-23T04:55:03;11.60;;;8.40;;
24715;SDS011;12822;50.124;8.678;2023-04-23T04:57:31;10.07;;;8.20;;
24715;SDS011;12822;50.124;8.678;2023-04-23T04:59:57;10.60;;;8.57;;
24715;SDS011;12822;50.124;8.678;2023-04-23T05:02:23;12.40;;;8.82;;
24715;SDS011;12822;50.124;8.678;2023-04-23T05:04:50;14.30;;;9.30;;
24715;SDS011;12822;50.124;8.678;2023-04-23T05:07:16;12.02;;;8.85;;
24715;SDS011;12822;50.124;8.678;2023-04-23T05:09:42;11.73;;;8.32;;
24715;SDS011;12822;50.124;8.678;2023-04-23T05:12:08;10.45;;;8.02;;
24715;SDS011;12822;50.124;8.678;2023-04-23T05:14:34;10.18;;;8.40;;
24715;SDS011;12822;50.124;8.678;2023-04-23T05:17:00;10.27;;;8.40;;
24715;SDS011;12822;50.124;8.678;2023-04-23T05:19:26;8.98;;;8.07;;
24715;SDS011;12822;50.124;8.678;2023-04-23T05:21:52;10.82;;;7.82;;
24715;SDS011;12822;50.124;8.678;2023-04-23T05:24:18;11.93;;;8.10;;
24715;SDS011;12822;50.124;8.678;2023-04-23T05:26:44;8.18;;;7.05;;
24715;SDS011;12822;50.124;8.678;2023-04-23T05:29:10;11.27;;;8.07;;
24715;SDS011;12822;50.124;8.678;2023-04-23T05:31:41;11.25;;;8.02;;
24715;SDS011;12822;50.124;8.678;2023-04-23T05:34:07;9.07;;;7.70;;
24715;SDS011;12822;50.124;8.678;2023-04-23T05:36:33;7.80;;;7.00;;
24715;SDS011;12822;50.124;8.678;2023-04-23T05:39:00;11.57;;;7.20;;
24715;SDS011;12822;50.124;8.678;2023-04-23T05:41:26;9.70;;;7.18;;
24715;SDS011;12822;50.124;8.678;2023-04-23T05:43:52;9.27;;;7.25;;
24715;SDS011;12822;50.124;8.678;2023-04-23T05:46:18;10.02;;;6.40;;
24715;SDS011;12822;50.124;8.678;2023-04-23T05:48:44;8.48;;;6.57;;
24715;SDS011;12822;50.124;8.678;2023-04-23T05:51:10;7.22;;;6.00;;
24715;SDS011;12822;50.124;8.678;2023-04-23T05:53:36;7.53;;;5.45;;
24715;SDS011;12822;50.124;8.678;2023-04-23T05:56:02;7.90;;;6.00;;
24715;SDS011;12822;50.124;8.678;2023-04-23T05:58:28;7.43;;;5.50;;
24715;SDS011;12822;50.124;8.678;2023-04-23T06:00:54;7.10;;;5.95;;
24715;SDS011;12822;50.124;8.678;2023-04-23T06:03:21;5.90;;;5.30;;
24715;SDS011;12822;50.124;8.678;2023-04-23T06:05:47;6.20;;;5.55;;
24715;SDS011;12822;50.124;8.678;2023-04-23T06:08:13;8.73;;;5.75;;
24715;SDS011;12822;50.124;8.678;2023-04-23T06:10:40;7.07;;;6.10;;
24715;SDS011;12822;50.124;8.678;2023-04-23T06:13:06;7.35;;;5.80;;
24715;SDS011;12822;50.124;8.678;2023-04-23T06:15:32;6.78;;;5.22;;
24715;SDS011;12822;50.124;8.678;2023-04-23T06:17:58;8.38;;;6.03;;
24715;SDS011;12822;50.124;8.678;2023-04-23T06:20:24;7.57;;;4.82;;
24715;SDS011;12822;50.124;8.678;2023-04-23T06:22:50;5.75;;;4.85;;
24715;SDS011;12822;50.124;8.678;2023-04-23T06:25:16;7.85;;;5.28;;
24715;SDS011;12822;50.124;8.678;2023-04-23T06:27:43;7.60;;;5.25;;
24715;SDS011;12822;50.124;8.678;2023-04-23T06:30:09;8.25;;;5.47;;
24715;SDS011;12822;50.124;8.678;2023-04-23T06:32:35;7.05;;;5.35;;
24715;SDS011;12822;50.124;8.678;2023-04-23T06:35:01;7.70;;;4.88;;
24715;SDS011;12822;50.124;8.678;2023-04-23T06:37:28;7.30;;;5.55;;
24715;SDS011;12822;50.124;8.678;2023-04-23T06:39:55;7.32;;;5.03;;
24715;SDS011;12822;50.124;8.678;2023-04-23T06:42:21;11.05;;;5.35;;
24715;SDS011;12822;50.124;8.678;2023-04-23T06:44:47;5.57;;;4.57;;
24715;SDS011;12822;50.124;8.678;2023-04-23T06:47:13;6.47;;;5.07;;
24715;SDS011;12822;50.124;8.678;2023-04-23T06:49:39;6.20;;;5.30;;
24715;SDS011;12822;50.124;8.678;2023-04-23T06:52:05;6.45;;;4.78;;
24715;SDS011;12822;50.124;8.678;2023-04-23T06:54:31;6.38;;;5.03;;
24715;SDS011;12822;50.124;8.678;2023-04-23T06:56:57;7.47;;;5.20;;
24715;SDS011;12822;50.124;8.678;2023-04-23T06:59:23;7.35;;;4.88;;
24715;SDS011;12822;50.124;8.678;2023-04-23T07:01:49;7.57;;;4.68;;
24715;SDS011;12822;50.124;8.678;2023-04-23T07:04:15;10.30;;;5.32;;
24715;SDS011;12822;50.124;8.678;2023-04-23T07:06:41;5.88;;;4.28;;
24715;SDS011;12822;50.124;8.678;2023-04-23T07:09:07;4.63;;;3.88;;
24715;SDS011;12822;50.124;8.678;2023-04-23T07:11:33;8.02;;;4.05;;
24715;SDS011;12822;50.124;8.678;2023-04-23T07:14:01;6.40;;;3.58;;
24715;SDS011;12822;50.124;8.678;2023-04-23T07:16:27;4.85;;;3.60;;
24715;SDS011;12822;50.124;8.678;2023-04-23T07:18:57;4.97;;;4.13;;
24715;SDS011;12822;50.124;8.678;2023-04-23T07:21:23;5.63;;;4.07;;
24715;SDS011;12822;50.124;8.678;2023-04-23T07:23:51;5.93;;;4.25;;
24715;SDS011;12822;50.124;8.678;2023-04-23T07:26:18;4.95;;;3.90;;
24715;SDS011;12822;50.124;8.678;2023-04-23T07:28:44;5.88;;;3.47;;
24715;SDS011;12822;50.124;8.678;2023-04-23T07:31:12;4.30;;;3.55;;
24715;SDS011;12822;50.124;8.678;2023-04-23T07:33:38;7.43;;;4.15;;
24715;SDS011;12822;50.124;8.678;2023-04-23T07:36:04;4.90;;;3.58;;
24715;SDS011;12822;50.124;8.678;2023-04-23T07:38:30;5.50;;;3.42;;
24715;SDS011;12822;50.124;8.678;2023-04-23T07:40:56;5.00;;;3.60;;
24715;SDS011;12822;50.124;8.678;2023-04-23T07:43:23;4.38;;;3.53;;
24715;SDS011;12822;50.124;8.678;2023-04-23T07:45:49;4.75;;;3.63;;
24715;SDS011;12822;50.124;8.678;2023-04-23T07:48:15;6.03;;;4.47;;
24715;SDS011;12822;50.124;8.678;2023-04-23T07:50:41;6.15;;;3.70;;
24715;SDS011;12822;50.124;8.678;2023-04-23T07:53:07;9.98;;;4.07;;
24715;SDS011;12822;50.124;8.678;2023-04-23T07:55:33;5.57;;;3.90;;
24715;SDS011;12822;50.124;8.678;2023-04-23T07:57:59;7.80;;;4.00;;
24715;SDS011;12822;50.124;8.678;2023-04-23T08:00:33;7.38;;;3.78;;
24715;SDS011;12822;50.124;8.678;2023-04-23T08:03:00;8.60;;;4.50;;
24715;SDS011;12822;50.124;8.678;2023-04-23T08:05:26;5.68;;;3.70;;
24715;SDS011;12822;50.124;8.678;2023-04-23T08:07:52;7.20;;;4.90;;
24715;SDS011;12822;50.124;8.678;2023-04-23T08:10:18;7.85;;;4.32;;
24715;SDS011;12822;50.124;8.678;2023-04-23T08:12:44;6.93;;;4.35;;
24715;SDS011;12822;50.124;8.678;2023-04-23T08:15:10;9.05;;;4.82;;
24715;SDS011;12822;50.124;8.678;2023-04-23T08:17:37;8.43;;;5.05;;
24715;SDS011;12822;50.124;8.678;2023-04-23T08:20:03;8.02;;;5.80;;
24715;SDS011;12822;50.124;8.678;2023-04-23T08:22:33;9.90;;;6.05;;
24715;SDS011;12822;50.124;8.678;2023-04-23T08:24:59;11.52;;;6.28;;
24715;SDS011;12822;50.124;8.678;2023-04-23T08:27:25;9.90;;;5.63;;
24715;SDS011;12822;50.124;8.678;2023-04-23T08:29:51;7.80;;;6.40;;
24715;SDS011;12822;50.124;8.678;2023-04-23T08:32:17;6.93;;;6.00;;
24715;SDS011;12822;50.124;8.678;2023-04-23T08:34:43;9.73;;;5.65;;
24715;SDS011;12822;50.124;8.678;2023-04-23T08:37:09;9.27;;;5.25;;
24715;SDS011;12822;50.124;8.678;2023-04-23T08:39:35;9.98;;;6.03;;
24715;SDS011;12822;50.124;8.678;2023-04-23T08:42:09;5.88;;;5.28;;
24715;SDS011;12822;50.124;8.678;2023-04-23T08:44:36;5.68;;;5.13;;
24715;SDS011;12822;50.124;8.678;2023-04-23T08:47:03;8.18;;;6.20;;
24715;SDS011;12822;50.124;8.678;2023-04-23T08:49:32;9.25;;;5.28;;
24715;SDS011;12822;50.124;8.678;2023-04-23T08:52:01;5.57;;;4.70;;
24715;SDS011;12822;50.124;8.678;2023-04-23T08:54:31;8.10;;;4.40;;
24715;SDS011;12822;50.124;8.678;2023-04-23T08:56:59;4.68;;;3.80;;
24715;SDS011;12822;50.124;8.678;2023-04-23T08:59:26;5.53;;;3.35;;
24715;SDS011;12822;50.124;8.678;2023-04-23T09:01:54;5.22;;;3.65;;
24715;SDS011;12822;50.124;8.678;2023-04-23T09:04:20;4.45;;;2.92;;
24715;SDS011;12822;50.124;8.678;2023-04-23T09:06:47;4.07;;;2.53;;
24715;SDS011;12822;50.124;8.678;2023-04-23T09:09:14;3.30;;;2.33;;
24715;SDS011;12822;50.124;8.678;2023-04-23T09:11:41;3.38;;;2.30;;
24715;SDS011;12822;50.124;8.678;2023-04-23T09:14:07;3.80;;;2.28;;
24715;SDS011;12822;50.124;8.678;2023-04-23T09:16:33;4.13;;;2.55;;
24715;SDS011;12822;50.124;8.678;2023-04-23T09:18:59;4.28;;;2.17;;
24715;SDS011;12822;50.124;8.678;2023-04-23T09:21:25;3.28;;;2.42;;
24715;SDS011;12822;50.124;8.678;2023-04-23T09:23:51;4.65;;;2.30;;
24715;SDS011;12822;50.124;8.678;2023-04-23T09:26:18;4.68;;;2.50;;
24715;SDS011;12822;50.124;8.678;2023-04-23T09:28:48;3.70;;;2.58;;
24715;SDS011;12822;50.124;8.678;2023-04-23T09:31:24;3.47;;;2.22;;
24715;SDS011;12822;50.124;8.678;2023-04-23T09:33:51;6.78;;;2.47;;
24715;SDS011;12822;50.124;8.678;2023-04-23T09:36:20;5.28;;;2.75;;
24715;SDS011;12822;50.124;8.678;2023-04-23T09:38:48;4.65;;;2.45;;
24715;SDS011;12822;50.124;8.678;2023-04-23T09:41:24;7.05;;;2.58;;
24715;SDS011;12822;50.124;8.678;2023-04-23T09:43:53;4.45;;;2.15;;
24715;SDS011;12822;50.124;8.678;2023-04-23T09:46:32;2.95;;;1.98;;
24715;SDS011;12822;50.124;8.678;2023-04-23T09:48:59;2.70;;;1.80;;
24715;SDS011;12822;50.124;8.678;2023-04-23T09:51:26;2.30;;;1.88;;
24715;SDS011;12822;50.124;8.678;2023-04-23T09:53:52;4.95;;;2.22;;
24715;SDS011;12822;50.124;8.678;2023-04-23T09:56:18;4.43;;;2.33;;
24715;SDS011;12822;50.124;8.678;2023-04-23T09:58:45;4.47;;;2.30;;
24715;SDS011;12822;50.124;8.678;2023-04-23T10:01:11;3.60;;;2.08;;
24715;SDS011;12822;50.124;8.678;2023-04-23T10:03:42;2.67;;;1.98;;
24715;SDS011;12822;50.124;8.678;2023-04-23T10:06:12;3.33;;;2.10;;
24715;SDS011;12822;50.124;8.678;2023-04-23T10:08:39;4.38;;;2.50;;
24715;SDS011;12822;50.124;8.678;2023-04-23T10:11:06;4.13;;;1.83;;
24715;SDS011;12822;50.124;8.678;2023-04-23T10:13:35;4.35;;;2.45;;
24715;SDS011;12822;50.124;8.678;2023-04-23T10:16:01;8.30;;;2.55;;
24715;SDS011;12822;50.124;8.678;2023-04-23T10:18:29;5.03;;;2.30;;
24715;SDS011;12822;50.124;8.678;2023-04-23T10:20:56;3.47;;;2.20;;
24715;SDS011;12822;50.124;8.678;2023-04-23T10:23:22;3.30;;;2.28;;
24715;SDS011;12822;50.124;8.678;2023-04-23T10:25:49;4.78;;;2.60;;
24715;SDS011;12822;50.124;8.678;2023-04-23T10:28:18;7.43;;;2.40;;
24715;SDS011;12822;50.124;8.678;2023-04-23T10:30:50;7.10;;;3.25;;
24715;SDS011;12822;50.124;8.678;2023-04-23T10:33:17;3.78;;;2.20;;
24715;SDS011;12822;50.124;8.678;2023-04-23T10:35:43;6.80;;;2.72;;
24715;SDS011;12822;50.124;8.678;2023-04-23T10:38:10;3.50;;;2.15;;
24715;SDS011;12822;50.124;8.678;2023-04-23T10:40:36;5.80;;;2.53;;
24715;SDS011;12822;50.124;8.678;2023-04-23T10:43:02;6.22;;;2.20;;
24715;SDS011;12822;50.124;8.678;2023-04-23T10:45:29;2.83;;;2.42;;
24715;SDS011;12822;50.124;8.678;2023-04-23T10:47:56;2.85;;;2.08;;
24715;SDS011;12822;50.124;8.678;2023-04-23T10:50:24;5.85;;;2.00;;
24715;SDS011;12822;50.124;8.678;2023-04-23T10:52:50;4.38;;;1.98;;
24715;SDS011;12822;50.124;8.678;2023-04-23T10:55:22;3.90;;;2.10;;
24715;SDS011;12822;50.124;8.678;2023-04-23T10:57:54;3.90;;;2.10;;
24715;SDS011;12822;50.124;8.678;2023-04-23T11:00:22;7.45;;;2.65;;
24715;SDS011;12822;50.124;8.678;2023-04-23T11:02:48;3.92;;;1.90;;
24715;SDS011;12822;50.124;8.678;2023-04-23T11:05:16;5.43;;;1.90;;
24715;SDS011;12822;50.124;8.678;2023-04-23T11:07:44;5.10;;;2.25;;
24715;SDS011;12822;50.124;8.678;2023-04-23T11:10:26;3.70;;;1.92;;
24715;SDS011;12822;50.124;8.678;2023-04-23T11:12:54;3.25;;;2.10;;
24715;SDS011;12822;50.124;8.678;2023-04-23T11:15:20;4.32;;;1.92;;
24715;SDS011;12822;50.124;8.678;2023-04-23T11:20:19;9.40;;;2.40;;
24715;SDS011;12822;50.124;8.678;2023-04-23T11:22:46;8.77;;;2.25;;
24715;SDS011;12822;50.124;8.678;2023-04-23T11:25:24;6.22;;;2.17;;
24715;SDS011;12822;50.124;8.678;2023-04-23T11:27:52;7.55;;;2.38;;
24715;SDS011;12822;50.124;8.678;2023-04-23T11:30:19;6.47;;;1.90;;
24715;SDS011;12822;50.124;8.678;2023-04-23T11:32:49;5.82;;;2.13;;
24715;SDS011;12822;50.124;8.678;2023-04-23T11:35:16;12.70;;;2.53;;
24715;SDS011;12822;50.124;8.678;2023-04-23T11:37:43;8.95;;;2.20;;
24715;SDS011;12822;50.124;8.678;2023-04-23T11:40:12;3.97;;;2.10;;
24715;SDS011;12822;50.124;8.678;2023-04-23T11:42:43;2.95;;;2.08;;
24715;SDS011;12822;50.124;8.678;2023-04-23T11:45:17;3.53;;;1.77;;
24715;SDS011;12822;50.124;8.678;2023-04-23T11:47:44;9.93;;;2.45;;
24715;SDS011;12822;50.124;8.678;2023-04-23T11:50:24;5.07;;;2.15;;
24715;SDS011;12822;50.124;8.678;2023-04-23T11:52:50;3.95;;;2.30;;
24715;SDS011;12822;50.124;8.678;2023-04-23T11:55:16;6.40;;;1.88;;
24715;SDS011;12822;50.124;8.678;2023-04-23T11:57:43;6.60;;;1.60;;
24715;SDS011;12822;50.124;8.678;2023-04-23T12:00:11;5.78;;;1.90;;
24715;SDS011;12822;50.124;8.678;2023-04-23T12:02:48;9.82;;;2.38;;
24715;SDS011;12822;50.124;8.678;2023-04-23T12:10:54;6.70;;;2.42;;
24715;SDS011;12822;50.124;8.678;2023-04-23T12:13:24;4.57;;;2.30;;
24715;SDS011;12822;50.124;8.678;2023-04-23T12:15:55;5.72;;;2.72;;
24715;SDS011;12822;50.124;8.678;2023-04-23T12:18:29;9.40;;;2.20;;
24715;SDS011;12822;50.124;8.678;2023-04-23T12:20:56;5.00;;;2.60;;
24715;SDS011;12822;50.124;8.678;2023-04-23T12:23:25;5.38;;;2.60;;
24715;SDS011;12822;50.124;8.678;2023-04-23T12:25:55;4.32;;;2.75;;
24715;SDS011;12822;50.124;8.678;2023-04-23T12:28:22;5.13;;;2.30;;
24715;SDS011;12822;50.124;8.678;2023-04-23T12:30:51;3.97;;;2.10;;
24715;SDS011;12822;50.124;8.678;2023-04-23T12:33:17;4.15;;;2.33;;
24715;SDS011;12822;50.124;8.678;2023-04-23T12:35:44;5.10;;;2.60;;
24715;SDS011;12822;50.124;8.678;2023-04-23T12:38:20;4.45;;;2.50;;
24715;SDS011;12822;50.124;8.678;2023-04-23T12:40:47;7.88;;;2.90;;
24715;SDS011;12822;50.124;8.678;2023-04-23T12:43:13;4.03;;;2.45;;
24715;SDS011;12822;50.124;8.678;2023-04-23T12:45:39;2.83;;;2.40;;
24715;SDS011;12822;50.124;8.678;2023-04-23T12:48:05;4.13;;;2.15;;
24715;SDS011;12822;50.124;8.678;2023-04-23T12:50:31;4.45;;;2.60;;
24715;SDS011;12822;50.124;8.678;2023-04-23T12:52:57;3.15;;;2.10;;
24715;SDS011;12822;50.124;8.678;2023-04-23T12:55:24;4.30;;;2.40;;
24715;SDS011;12822;50.124;8.678;2023-04-23T12:57:50;5.10;;;2.20;;
24715;SDS011;12822;50.124;8.678;2023-04-23T13:00:16;4.90;;;2.13;;
24715;SDS011;12822;50.124;8.678;2023-04-23T13:02:42;5.38;;;2.08;;
24715;SDS011;12822;50.124;8.678;2023-04-23T13:05:08;2.95;;;2.00;;
24715;SDS011;12822;50.124;8.678;2023-04-23T13:07:34;3.72;;;2.17;;
24715;SDS011;12822;50.124;8.678;2023-04-23T13:10:00;2.40;;;1.83;;
24715;SDS011;12822;50.124;8.678;2023-04-23T13:12:26;1.70;;;1.27;;
24715;SDS011;12822;50.124;8.678;2023-04-23T13:14:52;2.88;;;1.40;;
24715;SDS011;12822;50.124;8.678;2023-04-23T13:17:18;6.95;;;1.88;;
24715;SDS011;12822;50.124;8.678;2023-04-23T13:19:44;3.40;;;1.75;;
24715;SDS011;12822;50.124;8.678;2023-04-23T13:22:10;5.55;;;1.65;;
24715;SDS011;12822;50.124;8.678;2023-04-23T13:24:36;2.47;;;1.60;;
24715;SDS011;12822;50.124;8.678;2023-04-23T13:27:02;4.72;;;1.60;;
24715;SDS011;12822;50.124;8.678;2023-04-23T13:29:28;2.70;;;1.25;;
24715;SDS011;12822;50.124;8.678;2023-04-23T13:31:55;3.65;;;1.23;;
24715;SDS011;12822;50.124;8.678;2023-04-23T13:34:22;1.92;;;1.15;;
24715;SDS011;12822;50.124;8.678;2023-04-23T13:36:48;2.92;;;1.50;;
24715;SDS011;12822;50.124;8.678;2023-04-23T13:39:14;4.72;;;1.75;;
24715;SDS011;12822;50.124;8.678;2023-04-23T13:41:42;3.65;;;1.85;;
24715;SDS011;12822;50.124;8.678;2023-04-23T13:44:08;1.67;;;1.13;;
24715;SDS011;12822;50.124;8.678;2023-04-23T13:46:34;3.10;;;1.30;;
24715;SDS011;12822;50.124;8.678;2023-04-23T13:49:00;2.95;;;1.60;;
24715;SDS011;12822;50.124;8.678;2023-04-23T13:51:26;2.53;;;1.27;;
24715;SDS011;12822;50.124;8.678;2023-04-23T13:53:52;2.20;;;1.10;;
24715;SDS011;12822;50.124;8.678;2023-04-23T13:56:18;2.15;;;1.20;;
24715;SDS011;12822;50.124;8.678;2023-04-23T13:58:44;1.95;;;1.20;;
24715;SDS011;12822;50.124;8.678;2023-04-23T14:01:12;1.20;;;1.02;;
24715;SDS011;12822;50.124;8.678;2023-04-23T14:03:39;2.17;;;1.02;;
24715;SDS011;12822;50.124;8.678;2023-04-23T14:06:06;2.25;;;1.25;;
24715;SDS011;12822;50.124;8.678;2023-04-23T14:08:32;2.50;;;1.25;;
24715;SDS011;12822;50.124;8.678;2023-04-23T14:11:00;2.38;;;1.10;;
24715;SDS011;12822;50.124;8.678;2023-04-23T14:13:26;2.47;;;1.10;;
24715;SDS011;12822;50.124;8.678;2023-04-23T14:15:52;2.30;;;1.10;;
24715;SDS011;12822;50.124;8.678;2023-04-23T14:18:18;3.58;;;1.42;;
24715;SDS011;12822;50.124;8.678;2023-04-23T14:20:45;1.52;;;1.00;;
24715;SDS011;12822;50.124;8.678;2023-04-23T14:25:52;1.60;;;0.90;;
24715;SDS011;12822;50.124;8.678;2023-04-23T14:28:44;1.87;;;0.97;;
24715;SDS011;12822;50.124;8.678;2023-04-23T14:31:08;9.23;;;1.23;;
24715;SDS011;12822;50.124;8.678;2023-04-23T14:33:34;3.13;;;1.10;;
24715;SDS011;12822;50.124;8.678;2023-04-23T14:36:00;3.10;;;0.90;;
24715;SDS011;12822;50.124;8.678;2023-04-23T14:38:27;3.15;;;1.30;;
24715;SDS011;12822;50.124;8.678;2023-04-23T14:40:54;1.17;;;0.90;;
24715;SDS011;12822;50.124;8.678;2023-04-23T14:43:19;1.83;;;0.93;;
24715;SDS011;12822;50.124;8.678;2023-04-23T14:45:46;3.83;;;1.20;;
24715;SDS011;12822;50.124;8.678;2023-04-23T14:48:12;1.30;;;0.93;;
24715;SDS011;12822;50.124;8.678;2023-04-23T14:50:38;1.95;;;0.85;;
24715;SDS011;12822;50.124;8.678;2023-04-23T14:53:04;4.22;;;1.00;;